sensor_id;sensor_type;location;lat;lon;timestamp;pressure;altitude;pressure_sealevel;temperature
19102;BMP280;9683;49.028;12.064;2023-01-16T00:00:59;96228.03;;;5.01
19102;BMP280;9683;49.028;12.064;2023-01-16T00:03:26;96214.44;;;5.04
19102;BMP280;9683;49.028;12.064;2023-01-16T00:05:53;96214.19;;;5.12
19102;BMP280;9683;49.028;12.064;2023-01-16T00:08:20;96209.72;;;5.13
19102;BMP280;9683;49.028;12.064;2023-01-16T00:10:48;96210.75;;;5.12
19102;BMP280;9683;49.028;12.064;2023-01-16T00:13:14;96208.47;;;5.15
19102;BMP280;9683;49.028;12.064;2023-01-16T00:15:44;96206.00;;;5.20
19102;BMP280;9683;49.028;12.064;2023-01-16T00:18:11;96205.56;;;5.23
19102;BMP280;9683;49.028;12.064;2023-01-16T00:20:37;96197.03;;;5.28
19102;BMP280;9683;49.028;12.064;2023-01-16T00:23:04;96185.22;;;5.30
19102;BMP280;9683;49.028;12.064;2023-01-16T00:25:31;96191.31;;;5.31
19102;BMP280;9683;49.028;12.064;2023-01-16T00:27:59;96184.00;;;5.33
19102;BMP280;9683;49.028;12.064;2023-01-16T00:30:25;96187.22;;;5.35
19102;BMP280;9683;49.028;12.064;2023-01-16T00:32:52;96187.00;;;5.36
19102;BMP280;9683;49.028;12.064;2023-01-16T00:35:18;96186.00;;;5.37
19102;BMP280;9683;49.028;12.064;2023-01-16T00:37:45;96184.16;;;5.38
19102;BMP280;9683;49.028;12.064;2023-01-16T00:40:12;96186.00;;;5.37
19102;BMP280;9683;49.028;12.064;2023-01-16T00:42:39;96192.28;;;5.36
19102;BMP280;9683;49.028;12.064;2023-01-16T00:45:08;96189.84;;;5.35
19102;BMP280;9683;49.028;12.064;2023-01-16T00:47:35;96187.00;;;5.36
19102;BMP280;9683;49.028;12.064;2023-01-16T00:50:02;96177.84;;;5.39
19102;BMP280;9683;49.028;12.064;2023-01-16T00:52:29;96178.88;;;5.38
19102;BMP280;9683;49.028;12.064;2023-01-16T00:54:55;96182.09;;;5.40
19102;BMP280;9683;49.028;12.064;2023-01-16T00:57:22;96176.81;;;5.40
19102;BMP280;9683;49.028;12.064;2023-01-16T00:59:49;96171.78;;;5.38
19102;BMP280;9683;49.028;12.064;2023-01-16T01:02:17;96167.28;;;5.39
19102;BMP280;9683;49.028;12.064;2023-01-16T01:04:43;96177.06;;;5.38
19102;BMP280;9683;49.028;12.064;2023-01-16T01:07:10;96168.09;;;5.39
19102;BMP280;9683;49.028;12.064;2023-01-16T01:09:36;96172.56;;;5.39
19102;BMP280;9683;49.028;12.064;2023-01-16T01:12:03;96165.47;;;5.39
19102;BMP280;9683;49.028;12.064;2023-01-16T01:14:30;96159.63;;;5.37
19102;BMP280;9683;49.028;12.064;2023-01-16T01:16:56;96164.09;;;5.37
19102;BMP280;9683;49.028;12.064;2023-01-16T01:19:24;96162.25;;;5.37
19102;BMP280;9683;49.028;12.064;2023-01-16T01:21:51;96153.75;;;5.35
19102;BMP280;9683;49.028;12.064;2023-01-16T01:24:17;96155.56;;;5.35
19102;BMP280;9683;49.028;12.064;2023-01-16T01:26:44;96147.47;;;5.36
19102;BMP280;9683;49.028;12.064;2023-01-16T01:29:11;96141.38;;;5.36
19102;BMP280;9683;49.028;12.064;2023-01-16T01:31:38;96145.03;;;5.35
19102;BMP280;9683;49.028;12.064;2023-01-16T01:34:04;96138.19;;;5.34
19102;BMP280;9683;49.028;12.064;2023-01-16T01:36:32;96133.91;;;5.33
19102;BMP280;9683;49.028;12.064;2023-01-16T01:38:59;96127.69;;;5.27
19102;BMP280;9683;49.028;12.064;2023-01-16T01:41:25;96128.13;;;5.24
19102;BMP280;9683;49.028;12.064;2023-01-16T01:43:54;96124.88;;;5.22
19102;BMP280;9683;49.028;12.064;2023-01-16T01:46:25;96120.50;;;5.16
19102;BMP280;9683;49.028;12.064;2023-01-16T01:48:56;96116.44;;;5.14
19102;BMP280;9683;49.028;12.064;2023-01-16T01:51:25;96110.00;;;5.09
19102;BMP280;9683;49.028;12.064;2023-01-16T01:53:56;96101.53;;;5.07
19102;BMP280;9683;49.028;12.064;2023-01-16T01:56:27;96096.25;;;5.07
19102;BMP280;9683;49.028;12.064;2023-01-16T01:58:57;96092.81;;;5.07
19102;BMP280;9683;49.028;12.064;2023-01-16T02:01:26;96090.38;;;5.05
19102;BMP280;9683;49.028;12.064;2023-01-16T02:03:56;96075.63;;;5.04
19102;BMP280;9683;49.028;12.064;2023-01-16T02:06:27;96067.72;;;5.04
19102;BMP280;9683;49.028;12.064;2023-01-16T02:08:56;96067.72;;;5.04
19102;BMP280;9683;49.028;12.064;2023-01-16T02:11:26;96064.66;;;5.07
19102;BMP280;9683;49.028;12.064;2023-01-16T02:13:59;96067.47;;;5.06
19102;BMP280;9683;49.028;12.064;2023-01-16T02:16:27;96054.53;;;5.04
19102;BMP280;9683;49.028;12.064;2023-01-16T02:19:18;96053.28;;;5.07
19102;BMP280;9683;49.028;12.064;2023-01-16T02:22:24;96045.19;;;5.08
19102;BMP280;9683;49.028;12.064;2023-01-16T02:31:09;96028.03;;;4.99
19102;BMP280;9683;49.028;12.064;2023-01-16T02:33:54;96023.59;;;5.00
19102;BMP280;9683;49.028;12.064;2023-01-16T02:36:33;96013.03;;;5.00
19102;BMP280;9683;49.028;12.064;2023-01-16T02:39:12;96011.59;;;5.04
19102;BMP280;9683;49.028;12.064;2023-01-16T02:41:47;96002.50;;;5.00
19102;BMP280;9683;49.028;12.064;2023-01-16T02:44:24;95996.28;;;4.94
19102;BMP280;9683;49.028;12.064;2023-01-16T02:47:05;95995.47;;;4.94
19102;BMP280;9683;49.028;12.064;2023-01-16T02:49:38;95995.25;;;4.95
19102;BMP280;9683;49.028;12.064;2023-01-16T02:52:12;95991.38;;;4.98
19102;BMP280;9683;49.028;12.064;2023-01-16T02:54:42;95983.91;;;4.95
19102;BMP280;9683;49.028;12.064;2023-01-16T02:57:16;95978.84;;;4.93
19102;BMP280;9683;49.028;12.064;2023-01-16T02:59:43;95977.47;;;4.91
19102;BMP280;9683;49.028;12.064;2023-01-16T03:02:11;95971.19;;;4.92
19102;BMP280;9683;49.028;12.064;2023-01-16T03:04:45;95959.03;;;4.91
19102;BMP280;9683;49.028;12.064;2023-01-16T03:07:24;95955.75;;;4.95
19102;BMP280;9683;49.028;12.064;2023-01-16T03:10:01;95951.84;;;4.98
19102;BMP280;9683;49.028;12.064;2023-01-16T03:12:39;95952.88;;;4.97
19102;BMP280;9683;49.028;12.064;2023-01-16T03:15:11;95941.56;;;4.96
19102;BMP280;9683;49.028;12.064;2023-01-16T03:17:45;95929.41;;;4.95
19102;BMP280;9683;49.028;12.064;2023-01-16T03:20:24;95921.72;;;4.94
19102;BMP280;9683;49.028;12.064;2023-01-16T03:22:55;95928.81;;;4.93
19102;BMP280;9683;49.028;12.064;2023-01-16T03:25:34;95918.94;;;4.89
19102;BMP280;9683;49.028;12.064;2023-01-16T03:28:07;95916.19;;;4.84
19102;BMP280;9683;49.028;12.064;2023-01-16T03:30:47;95912.38;;;4.80
19102;BMP280;9683;49.028;12.064;2023-01-16T03:33:22;95909.97;;;4.78
19102;BMP280;9683;49.028;12.064;2023-01-16T03:35:54;95899.63;;;4.77
19102;BMP280;9683;49.028;12.064;2023-01-16T03:38:24;95887.06;;;4.79
19102;BMP280;9683;49.028;12.064;2023-01-16T03:40:54;95886.72;;;4.75
19102;BMP280;9683;49.028;12.064;2023-01-16T03:43:25;95881.16;;;4.65
19102;BMP280;9683;49.028;12.064;2023-01-16T03:45:55;95884.28;;;4.55
19102;BMP280;9683;49.028;12.064;2023-01-16T03:48:29;95884.94;;;4.51
19102;BMP280;9683;49.028;12.064;2023-01-16T03:51:00;95869.03;;;4.46
19102;BMP280;9683;49.028;12.064;2023-01-16T03:53:31;95863.59;;;4.41
19102;BMP280;9683;49.028;12.064;2023-01-16T03:56:07;95853.28;;;4.39
19102;BMP280;9683;49.028;12.064;2023-01-16T03:58:39;95849.44;;;4.42
19102;BMP280;9683;49.028;12.064;2023-01-16T04:01:12;95847.16;;;4.45
19102;BMP280;9683;49.028;12.064;2023-01-16T04:03:47;95841.91;;;4.45
19102;BMP280;9683;49.028;12.064;2023-01-16T04:06:21;95839.84;;;4.47
19102;BMP280;9683;49.028;12.064;2023-01-16T04:08:51;95838.22;;;4.46
19102;BMP280;9683;49.028;12.064;2023-01-16T04:11:20;95829.16;;;4.42
19102;BMP280;9683;49.028;12.064;2023-01-16T04:13:51;95834.31;;;4.37
19102;BMP280;9683;49.028;12.064;2023-01-16T04:16:20;95826.09;;;4.27
19102;BMP280;9683;49.028;12.064;2023-01-16T04:18:50;95811.19;;;4.21
19102;BMP280;9683;49.028;12.064;2023-01-16T04:21:25;95806.63;;;4.17
19102;BMP280;9683;49.028;12.064;2023-01-16T04:23:52;95792.94;;;4.08
19102;BMP280;9683;49.028;12.064;2023-01-16T04:26:19;95781.31;;;3.97
19102;BMP280;9683;49.028;12.064;2023-01-16T04:28:46;95778.13;;;3.95
19102;BMP280;9683;49.028;12.064;2023-01-16T04:31:18;95775.09;;;3.92
19102;BMP280;9683;49.028;12.064;2023-01-16T04:33:44;95757.94;;;3.89
19102;BMP280;9683;49.028;12.064;2023-01-16T04:36:12;95762.19;;;3.90
19102;BMP280;9683;49.028;12.064;2023-01-16T04:38:39;95748.44;;;3.88
19102;BMP280;9683;49.028;12.064;2023-01-16T04:41:06;95745.44;;;3.85
19102;BMP280;9683;49.028;12.064;2023-01-16T04:43:32;95739.63;;;3.83
19102;BMP280;9683;49.028;12.064;2023-01-16T04:45:59;95727.50;;;3.82
19102;BMP280;9683;49.028;12.064;2023-01-16T04:48:25;95729.31;;;3.81
19102;BMP280;9683;49.028;12.064;2023-01-16T04:50:52;95733.97;;;3.79
19102;BMP280;9683;49.028;12.064;2023-01-16T04:53:20;95729.38;;;3.75
19102;BMP280;9683;49.028;12.064;2023-01-16T04:55:46;95729.81;;;3.72
19102;BMP280;9683;49.028;12.064;2023-01-16T04:58:13;95719.53;;;3.70
19102;BMP280;9683;49.028;12.064;2023-01-16T05:00:39;95724.84;;;3.63
19102;BMP280;9683;49.028;12.064;2023-01-16T05:03:06;95716.38;;;3.61
19102;BMP280;9683;49.028;12.064;2023-01-16T05:05:32;95716.59;;;3.60
19102;BMP280;9683;49.028;12.064;2023-01-16T05:07:59;95705.06;;;3.61
19102;BMP280;9683;49.028;12.064;2023-01-16T05:10:46;95706.91;;;3.60
19102;BMP280;9683;49.028;12.064;2023-01-16T05:13:12;95709.06;;;3.63
19102;BMP280;9683;49.028;12.064;2023-01-16T05:15:39;95702.44;;;3.61
19102;BMP280;9683;49.028;12.064;2023-01-16T05:18:08;95701.63;;;3.60
19102;BMP280;9683;49.028;12.064;2023-01-16T05:20:35;95701.84;;;3.59
19102;BMP280;9683;49.028;12.064;2023-01-16T05:23:01;95697.84;;;3.56
19102;BMP280;9683;49.028;12.064;2023-01-16T05:25:28;95690.63;;;3.52
19102;BMP280;9683;49.028;12.064;2023-01-16T05:27:56;95687.03;;;3.46
19102;BMP280;9683;49.028;12.064;2023-01-16T05:30:23;95681.19;;;3.44
19102;BMP280;9683;49.028;12.064;2023-01-16T05:32:50;95678.41;;;3.39
19102;BMP280;9683;49.028;12.064;2023-01-16T05:35:16;95674.41;;;3.37
19102;BMP280;9683;49.028;12.064;2023-01-16T05:37:45;95664.47;;;3.39
19102;BMP280;9683;49.028;12.064;2023-01-16T05:40:12;95657.03;;;3.36
19102;BMP280;9683;49.028;12.064;2023-01-16T05:42:41;95651.53;;;3.37
19102;BMP280;9683;49.028;12.064;2023-01-16T05:45:10;95644.09;;;3.34
19102;BMP280;9683;49.028;12.064;2023-01-16T05:47:36;95641.78;;;3.26
19102;BMP280;9683;49.028;12.064;2023-01-16T05:50:04;95650.31;;;3.21
19102;BMP280;9683;49.028;12.064;2023-01-16T05:52:30;95651.75;;;3.17
19102;BMP280;9683;49.028;12.064;2023-01-16T05:54:57;95636.00;;;3.17
19102;BMP280;9683;49.028;12.064;2023-01-16T05:57:24;95637.25;;;3.15
19102;BMP280;9683;49.028;12.064;2023-01-16T05:59:51;95627.75;;;3.14
19102;BMP280;9683;49.028;12.064;2023-01-16T06:02:20;95620.91;;;3.13
19102;BMP280;9683;49.028;12.064;2023-01-16T06:04:47;95619.28;;;3.12
19102;BMP280;9683;49.028;12.064;2023-01-16T06:07:14;95618.91;;;3.08
19102;BMP280;9683;49.028;12.064;2023-01-16T06:09:41;95619.16;;;3.07
19102;BMP280;9683;49.028;12.064;2023-01-16T06:12:12;95618.91;;;3.08
19102;BMP280;9683;49.028;12.064;2023-01-16T06:14:40;95617.91;;;3.09
19102;BMP280;9683;49.028;12.064;2023-01-16T06:17:06;95608.78;;;3.12
19102;BMP280;9683;49.028;12.064;2023-01-16T06:19:34;95607.84;;;3.06
19102;BMP280;9683;49.028;12.064;2023-01-16T06:22:01;95600.63;;;3.02
19102;BMP280;9683;49.028;12.064;2023-01-16T06:24:28;95595.13;;;3.03
19102;BMP280;9683;49.028;12.064;2023-01-16T06:26:54;95592.38;;;2.98
19102;BMP280;9683;49.028;12.064;2023-01-16T06:29:21;95592.38;;;2.98
19102;BMP280;9683;49.028;12.064;2023-01-16T06:31:48;95588.16;;;2.97
19102;BMP280;9683;49.028;12.064;2023-01-16T06:34:14;95581.44;;;3.01
19102;BMP280;9683;49.028;12.064;2023-01-16T06:36:43;95574.44;;;3.13
19102;BMP280;9683;49.028;12.064;2023-01-16T06:39:11;95567.44;;;3.26
19102;BMP280;9683;49.028;12.064;2023-01-16T06:41:38;95559.50;;;3.32
19102;BMP280;9683;49.028;12.064;2023-01-16T06:44:05;95563.34;;;3.30
19102;BMP280;9683;49.028;12.064;2023-01-16T06:46:32;95549.84;;;3.26
19102;BMP280;9683;49.028;12.064;2023-01-16T06:48:59;95549.28;;;3.24
19102;BMP280;9683;49.028;12.064;2023-01-16T06:51:25;95548.69;;;3.22
19102;BMP280;9683;49.028;12.064;2023-01-16T06:53:53;95538.84;;;3.17
19102;BMP280;9683;49.028;12.064;2023-01-16T06:56:20;95535.06;;;3.13
19102;BMP280;9683;49.028;12.064;2023-01-16T06:58:47;95526.38;;;3.13
19102;BMP280;9683;49.028;12.064;2023-01-16T07:01:13;95518.50;;;3.13
19102;BMP280;9683;49.028;12.064;2023-01-16T07:03:40;95519.41;;;3.07
19102;BMP280;9683;49.028;12.064;2023-01-16T07:06:06;95517.41;;;3.02
19102;BMP280;9683;49.028;12.064;2023-01-16T07:08:33;95510.78;;;3.00
19102;BMP280;9683;49.028;12.064;2023-01-16T07:11:01;95511.94;;;3.04
19102;BMP280;9683;49.028;12.064;2023-01-16T07:13:27;95507.50;;;3.04
19102;BMP280;9683;49.028;12.064;2023-01-16T07:15:55;95510.06;;;3.11
19102;BMP280;9683;49.028;12.064;2023-01-16T07:18:39;95506.78;;;3.15
19102;BMP280;9683;49.028;12.064;2023-01-16T07:21:25;95508.59;;;3.15
19102;BMP280;9683;49.028;12.064;2023-01-16T07:24:12;95496.84;;;3.17
19102;BMP280;9683;49.028;12.064;2023-01-16T07:26:43;95487.78;;;3.13
19102;BMP280;9683;49.028;12.064;2023-01-16T07:29:10;95485.75;;;3.15
19102;BMP280;9683;49.028;12.064;2023-01-16T07:31:37;95490.31;;;3.20
19102;BMP280;9683;49.028;12.064;2023-01-16T07:34:04;95476.31;;;3.26
19102;BMP280;9683;49.028;12.064;2023-01-16T07:36:30;95464.28;;;3.37
19102;BMP280;9683;49.028;12.064;2023-01-16T07:38:57;95464.31;;;3.48
19102;BMP280;9683;49.028;12.064;2023-01-16T07:41:24;95462.81;;;3.52
19102;BMP280;9683;49.028;12.064;2023-01-16T07:43:51;95460.34;;;3.69
19102;BMP280;9683;49.028;12.064;2023-01-16T07:46:18;95443.66;;;3.75
19102;BMP280;9683;49.028;12.064;2023-01-16T07:48:45;95432.47;;;3.80
19102;BMP280;9683;49.028;12.064;2023-01-16T07:51:11;95436.25;;;3.72
19102;BMP280;9683;49.028;12.064;2023-01-16T07:53:38;95427.00;;;3.69
19102;BMP280;9683;49.028;12.064;2023-01-16T07:56:05;95419.66;;;3.72
19102;BMP280;9683;49.028;12.064;2023-01-16T07:58:31;95413.41;;;3.73
19102;BMP280;9683;49.028;12.064;2023-01-16T08:00:59;95402.06;;;3.72
19102;BMP280;9683;49.028;12.064;2023-01-16T08:03:26;95400.94;;;3.68
19102;BMP280;9683;49.028;12.064;2023-01-16T08:05:56;95393.03;;;3.68
19102;BMP280;9683;49.028;12.064;2023-01-16T08:08:24;95390.75;;;3.72
19102;BMP280;9683;49.028;12.064;2023-01-16T08:10:53;95376.00;;;3.70
19102;BMP280;9683;49.028;12.064;2023-01-16T08:13:20;95378.63;;;3.70
19102;BMP280;9683;49.028;12.064;2023-01-16T08:15:46;95369.72;;;3.72
19102;BMP280;9683;49.028;12.064;2023-01-16T08:18:14;95359.00;;;3.73
19102;BMP280;9683;49.028;12.064;2023-01-16T08:20:43;95357.97;;;3.74
19102;BMP280;9683;49.028;12.064;2023-01-16T08:23:10;95351.22;;;3.66
19102;BMP280;9683;49.028;12.064;2023-01-16T08:25:37;95347.44;;;3.62
19102;BMP280;9683;49.028;12.064;2023-01-16T08:28:04;95333.41;;;3.57
19102;BMP280;9683;49.028;12.064;2023-01-16T08:30:31;95329.97;;;3.56
19102;BMP280;9683;49.028;12.064;2023-01-16T08:32:58;95327.56;;;3.55
19102;BMP280;9683;49.028;12.064;2023-01-16T08:35:26;95316.84;;;3.56
19102;BMP280;9683;49.028;12.064;2023-01-16T08:37:53;95300.75;;;3.53
19102;BMP280;9683;49.028;12.064;2023-01-16T08:40:19;95303.72;;;3.56
19102;BMP280;9683;49.028;12.064;2023-01-16T08:42:46;95302.91;;;3.56
19102;BMP280;9683;49.028;12.064;2023-01-16T08:45:30;95287.47;;;3.48
19102;BMP280;9683;49.028;12.064;2023-01-16T08:48:19;95287.59;;;3.53
19102;BMP280;9683;49.028;12.064;2023-01-16T08:51:07;95276.28;;;3.52
19102;BMP280;9683;49.028;12.064;2023-01-16T08:53:48;95271.16;;;3.57
19102;BMP280;9683;49.028;12.064;2023-01-16T08:56:14;95268.28;;;3.59
19102;BMP280;9683;49.028;12.064;2023-01-16T08:58:41;95272.97;;;3.57
19102;BMP280;9683;49.028;12.064;2023-01-16T09:01:08;95261.09;;;3.54
19102;BMP280;9683;49.028;12.064;2023-01-16T09:03:34;95261.19;;;3.59
19102;BMP280;9683;49.028;12.064;2023-01-16T09:06:01;95259.25;;;3.66
19102;BMP280;9683;49.028;12.064;2023-01-16T09:08:29;95271.69;;;3.71
19102;BMP280;9683;49.028;12.064;2023-01-16T09:10:56;95250.66;;;3.71
19102;BMP280;9683;49.028;12.064;2023-01-16T09:13:36;95251.47;;;3.72
19102;BMP280;9683;49.028;12.064;2023-01-16T09:16:16;95247.13;;;3.77
19102;BMP280;9683;49.028;12.064;2023-01-16T09:18:42;95245.53;;;3.76
19102;BMP280;9683;49.028;12.064;2023-01-16T09:21:09;95239.03;;;3.79
19102;BMP280;9683;49.028;12.064;2023-01-16T09:23:37;95240.59;;;3.80
19102;BMP280;9683;49.028;12.064;2023-01-16T09:26:04;95235.22;;;3.86
19102;BMP280;9683;49.028;12.064;2023-01-16T09:28:31;95221.41;;;3.91
19102;BMP280;9683;49.028;12.064;2023-01-16T09:30:57;95233.16;;;3.88
19102;BMP280;9683;49.028;12.064;2023-01-16T09:33:24;95219.31;;;3.93
19102;BMP280;9683;49.028;12.064;2023-01-16T09:35:51;95219.09;;;3.94
19102;BMP280;9683;49.028;12.064;2023-01-16T09:38:17;95216.47;;;3.94
19102;BMP280;9683;49.028;12.064;2023-01-16T09:40:51;95201.25;;;3.96
19102;BMP280;9683;49.028;12.064;2023-01-16T09:43:33;95190.28;;;3.99
19102;BMP280;9683;49.028;12.064;2023-01-16T09:46:06;95171.06;;;3.99
19102;BMP280;9683;49.028;12.064;2023-01-16T09:48:37;95155.63;;;4.02
19102;BMP280;9683;49.028;12.064;2023-01-16T09:51:06;95154.13;;;4.06
19102;BMP280;9683;49.028;12.064;2023-01-16T09:53:40;95137.72;;;4.16
19102;BMP280;9683;49.028;12.064;2023-01-16T09:56:33;95137.78;;;4.21
19102;BMP280;9683;49.028;12.064;2023-01-16T09:59:24;95127.94;;;4.28
19102;BMP280;9683;49.028;12.064;2023-01-16T10:01:55;95123.31;;;4.35
19102;BMP280;9683;49.028;12.064;2023-01-16T10:04:24;95110.75;;;4.37
19102;BMP280;9683;49.028;12.064;2023-01-16T10:07:25;95096.13;;;4.46
19102;BMP280;9683;49.028;12.064;2023-01-16T10:09:59;95089.13;;;4.52
19102;BMP280;9683;49.028;12.064;2023-01-16T10:12:32;95086.34;;;4.58
19102;BMP280;9683;49.028;12.064;2023-01-16T10:15:14;95081.94;;;4.64
19102;BMP280;9683;49.028;12.064;2023-01-16T10:17:48;95060.16;;;4.69
19102;BMP280;9683;49.028;12.064;2023-01-16T10:20:27;95066.28;;;4.74
19102;BMP280;9683;49.028;12.064;2023-01-16T10:23:06;95048.25;;;4.83
19102;BMP280;9683;49.028;12.064;2023-01-16T10:25:39;95042.88;;;4.94
19102;BMP280;9683;49.028;12.064;2023-01-16T10:28:23;95031.41;;;5.05
19102;BMP280;9683;49.028;12.064;2023-01-16T10:30:54;95020.13;;;5.05
19102;BMP280;9683;49.028;12.064;2023-01-16T10:33:27;95006.69;;;5.06
19102;BMP280;9683;49.028;12.064;2023-01-16T10:35:57;95000.91;;;5.09
19102;BMP280;9683;49.028;12.064;2023-01-16T10:38:28;95001.72;;;5.10
19102;BMP280;9683;49.028;12.064;2023-01-16T10:41:04;94998.03;;;5.11
19102;BMP280;9683;49.028;12.064;2023-01-16T10:43:53;94994.97;;;5.19
19102;BMP280;9683;49.028;12.064;2023-01-16T10:46:38;94981.63;;;5.26
19102;BMP280;9683;49.028;12.064;2023-01-16T10:49:24;94971.69;;;5.33
19102;BMP280;9683;49.028;12.064;2023-01-16T10:51:55;94962.78;;;5.39
19102;BMP280;9683;49.028;12.064;2023-01-16T10:54:23;94950.66;;;5.38
19102;BMP280;9683;49.028;12.064;2023-01-16T10:56:50;94946.22;;;5.43
19102;BMP280;9683;49.028;12.064;2023-01-16T10:59:18;94936.81;;;5.52
19102;BMP280;9683;49.028;12.064;2023-01-16T11:01:47;94928.41;;;5.55
19102;BMP280;9683;49.028;12.064;2023-01-16T11:04:18;94917.91;;;5.61
19102;BMP280;9683;49.028;12.064;2023-01-16T11:06:45;94912.94;;;5.64
19102;BMP280;9683;49.028;12.064;2023-01-16T11:09:17;94897.44;;;5.73
19102;BMP280;9683;49.028;12.064;2023-01-16T11:11:45;94890.78;;;5.65
19102;BMP280;9683;49.028;12.064;2023-01-16T11:14:35;94887.16;;;5.71
19102;BMP280;9683;49.028;12.064;2023-01-16T11:17:25;94875.88;;;5.76
19102;BMP280;9683;49.028;12.064;2023-01-16T11:20:13;94871.72;;;5.85
19102;BMP280;9683;49.028;12.064;2023-01-16T11:22:41;94874.66;;;5.88
19102;BMP280;9683;49.028;12.064;2023-01-16T11:25:14;94861.25;;;5.95
19102;BMP280;9683;49.028;12.064;2023-01-16T11:27:43;94852.59;;;6.05
19102;BMP280;9683;49.028;12.064;2023-01-16T11:30:17;94841.03;;;6.16
19102;BMP280;9683;49.028;12.064;2023-01-16T11:32:45;94847.66;;;6.23
19102;BMP280;9683;49.028;12.064;2023-01-16T11:35:15;94836.63;;;6.31
19102;BMP280;9683;49.028;12.064;2023-01-16T11:37:43;94816.88;;;6.39
19102;BMP280;9683;49.028;12.064;2023-01-16T11:40:16;94814.78;;;6.41
19102;BMP280;9683;49.028;12.064;2023-01-16T11:42:51;94805.28;;;6.45
19102;BMP280;9683;49.028;12.064;2023-01-16T11:45:40;94795.78;;;6.49
19102;BMP280;9683;49.028;12.064;2023-01-16T11:48:25;94789.72;;;6.49
19102;BMP280;9683;49.028;12.064;2023-01-16T11:50:53;94791.84;;;6.47
19102;BMP280;9683;49.028;12.064;2023-01-16T11:53:21;94780.50;;;6.51
19102;BMP280;9683;49.028;12.064;2023-01-16T11:56:04;94777.84;;;6.51
19102;BMP280;9683;49.028;12.064;2023-01-16T11:58:43;94765.69;;;6.50
19102;BMP280;9683;49.028;12.064;2023-01-16T12:01:19;94751.97;;;6.53
19102;BMP280;9683;49.028;12.064;2023-01-16T12:04:01;94746.19;;;6.56
19102;BMP280;9683;49.028;12.064;2023-01-16T12:06:40;94736.41;;;6.62
19102;BMP280;9683;49.028;12.064;2023-01-16T12:09:30;94724.56;;;6.64
19102;BMP280;9683;49.028;12.064;2023-01-16T12:12:15;94716.63;;;6.69
19102;BMP280;9683;49.028;12.064;2023-01-16T12:15:03;94712.94;;;6.70
19102;BMP280;9683;49.028;12.064;2023-01-16T12:17:41;94712.13;;;6.75
19102;BMP280;9683;49.028;12.064;2023-01-16T12:20:19;94697.34;;;6.74
19102;BMP280;9683;49.028;12.064;2023-01-16T12:23:00;94689.97;;;6.76
19102;BMP280;9683;49.028;12.064;2023-01-16T12:25:33;94669.91;;;6.85
19102;BMP280;9683;49.028;12.064;2023-01-16T12:28:10;94653.25;;;6.84
19102;BMP280;9683;49.028;12.064;2023-01-16T12:30:54;94638.44;;;6.88
19102;BMP280;9683;49.028;12.064;2023-01-16T12:33:37;94631.84;;;6.91
19102;BMP280;9683;49.028;12.064;2023-01-16T12:36:13;94627.09;;;6.93
19102;BMP280;9683;49.028;12.064;2023-01-16T12:38:47;94611.50;;;6.97
19102;BMP280;9683;49.028;12.064;2023-01-16T12:41:19;94599.59;;;7.04
19102;BMP280;9683;49.028;12.064;2023-01-16T12:44:22;94582.66;;;7.15
19102;BMP280;9683;49.028;12.064;2023-01-16T12:47:06;94561.53;;;7.15
19102;BMP280;9683;49.028;12.064;2023-01-16T12:49:52;94537.69;;;7.20
19102;BMP280;9683;49.028;12.064;2023-01-16T12:52:32;94522.88;;;7.24
19102;BMP280;9683;49.028;12.064;2023-01-16T12:55:18;94521.31;;;7.23
19102;BMP280;9683;49.028;12.064;2023-01-16T12:57:56;94509.19;;;7.17
19102;BMP280;9683;49.028;12.064;2023-01-16T13:00:28;94511.31;;;7.15
19102;BMP280;9683;49.028;12.064;2023-01-16T13:02:59;94515.00;;;7.19
19102;BMP280;9683;49.028;12.064;2023-01-16T13:05:33;94528.69;;;7.26
19102;BMP280;9683;49.028;12.064;2023-01-16T13:08:02;94541.66;;;7.28
19102;BMP280;9683;49.028;12.064;2023-01-16T13:10:33;94546.38;;;7.31
19102;BMP280;9683;49.028;12.064;2023-01-16T13:13:22;94562.75;;;7.33
19102;BMP280;9683;49.028;12.064;2023-01-16T13:15:57;94555.06;;;7.36
19102;BMP280;9683;49.028;12.064;2023-01-16T13:18:27;94553.75;;;7.44
19102;BMP280;9683;49.028;12.064;2023-01-16T13:20:58;94551.88;;;7.45
19102;BMP280;9683;49.028;12.064;2023-01-16T13:23:29;94557.94;;;7.45
19102;BMP280;9683;49.028;12.064;2023-01-16T13:26:00;94562.16;;;7.51
19102;BMP280;9683;49.028;12.064;2023-01-16T13:28:35;94557.13;;;7.55
19102;BMP280;9683;49.028;12.064;2023-01-16T13:31:06;94560.56;;;7.55
19102;BMP280;9683;49.028;12.064;2023-01-16T13:33:36;94573.22;;;7.58
19102;BMP280;9683;49.028;12.064;2023-01-16T13:36:17;94575.06;;;7.58
19102;BMP280;9683;49.028;12.064;2023-01-16T13:38:59;94576.94;;;7.57
19102;BMP280;9683;49.028;12.064;2023-01-16T13:41:30;94582.47;;;7.61
19102;BMP280;9683;49.028;12.064;2023-01-16T13:44:05;94581.66;;;7.65
19102;BMP280;9683;49.028;12.064;2023-01-16T13:46:51;94572.63;;;7.71
19102;BMP280;9683;49.028;12.064;2023-01-16T13:49:19;94573.16;;;7.78
19102;BMP280;9683;49.028;12.064;2023-01-16T13:51:49;94574.19;;;7.82
19102;BMP280;9683;49.028;12.064;2023-01-16T13:54:20;94573.09;;;7.83
19102;BMP280;9683;49.028;12.064;2023-01-16T13:56:59;94570.69;;;7.87
19102;BMP280;9683;49.028;12.064;2023-01-16T13:59:41;94563.53;;;7.88
19102;BMP280;9683;49.028;12.064;2023-01-16T14:02:23;94563.28;;;7.89
19102;BMP280;9683;49.028;12.064;2023-01-16T14:05:22;94552.97;;;7.88
19102;BMP280;9683;49.028;12.064;2023-01-16T14:08:05;94540.75;;;7.92
19102;BMP280;9683;49.028;12.064;2023-01-16T14:11:14;94530.72;;;7.94
19102;BMP280;9683;49.028;12.064;2023-01-16T14:13:41;94530.19;;;7.92
19102;BMP280;9683;49.028;12.064;2023-01-16T14:16:27;94520.69;;;7.91
19102;BMP280;9683;49.028;12.064;2023-01-16T14:19:00;94510.63;;;7.88
19102;BMP280;9683;49.028;12.064;2023-01-16T14:21:38;94500.31;;;7.91
19102;BMP280;9683;49.028;12.064;2023-01-16T14:24:14;94483.06;;;7.94
19102;BMP280;9683;49.028;12.064;2023-01-16T14:26:43;94481.72;;;7.96
19102;BMP280;9683;49.028;12.064;2023-01-16T14:29:18;94532.00;;;7.96
19102;BMP280;9683;49.028;12.064;2023-01-16T14:31:52;94556.41;;;7.88
19102;BMP280;9683;49.028;12.064;2023-01-16T14:34:21;94540.28;;;7.84
19102;BMP280;9683;49.028;12.064;2023-01-16T14:36:50;94539.22;;;7.86
19102;BMP280;9683;49.028;12.064;2023-01-16T14:39:32;94543.47;;;7.87
19102;BMP280;9683;49.028;12.064;2023-01-16T14:42:02;94558.81;;;7.79
19102;BMP280;9683;49.028;12.064;2023-01-16T14:45:27;94546.94;;;7.82
19102;BMP280;9683;49.028;12.064;2023-01-16T14:48:29;94538.19;;;7.81
19102;BMP280;9683;49.028;12.064;2023-01-16T14:51:16;94536.59;;;7.80
19102;BMP280;9683;49.028;12.064;2023-01-16T14:54:04;94541.41;;;7.78
19102;BMP280;9683;49.028;12.064;2023-01-16T14:56:57;94537.97;;;7.78